Flight Track Log - Related Links

Times and Time Zones

All times are in EDT time to prevent confusion due to time zone crossing. See the UAL4536 flight status page for this flight to view local times or setup timezone preferences in your user account.

Time Position Orientation Groundspeed Altitude Reporting Facility
EDT Latitude Longitude Course Direction KTS MPH feet Rate Location/Type
Fri 09:15:24 PM 40.7333 -74.1167 242° Southwest 196 226 2,700  Level New York TRACON
Fri 09:16:24 PM 40.7667 -74.2000 298° West 260 299 5,100 2,300 Climbing New York TRACON
Fri 09:17:00 PM 40.6473 -74.5789 270° West  Level Estimated
Fri 09:17:24 PM 40.7500 -74.2833 255° West 270 311 7,300  Level New York TRACON
Fri 09:18:00 PM 40.6320 -74.7156 270° West  Level Estimated
Fri 09:18:24 PM 40.7500 -74.4000 270° West 287 330 9,400  Level New York TRACON
Fri 09:19:00 PM 40.6164 -74.8522 246° West  Level Estimated
Fri 09:20:00 PM 40.6007 -74.9887 242° Southwest  Level Estimated
Fri 09:20:03 PM 40.7342 -74.5614 263° West 332 382 10,800  Level New York Center
Fri 09:21:02 PM 40.7189 -74.7056 262° West 361 415 12,500 1,590 Climbing New York Center
Fri 09:22:00 PM 40.7089 -74.8228 264° West 370 426 13,900 1,271 Climbing New York Center
Fri 09:23:00 PM 40.6956 -74.9589 263° West 370 426 15,000 1,190 Climbing New York Center
Fri 09:24:01 PM 40.6675 -75.1075 256° West 370 426 16,300 1,240 Climbing New York Center
Fri 09:25:01 PM 40.6106 -75.2325 239° Southwest 384 442 17,500 992 Climbing New York Center
Fri 09:26:02 PM 40.5558 -75.3544 239° Southwest 395 455 18,300 857 Climbing New York Center
Fri 09:27:00 PM 40.5011 -75.4792 240° Southwest 406 467 19,200 958 Climbing New York Center
Fri 09:28:01 PM 40.4417 -75.6086 239° Southwest 406 467 20,200 950 Climbing New York Center
Fri 09:29:00 PM 40.3797 -75.7406 238° Southwest 418 481 21,100 958 Climbing New York Center
Fri 09:30:00 PM 40.3178 -75.8778 239° Southwest 424 488 22,100 1,091 Climbing New York Center
Fri 09:31:01 PM 40.2514 -76.0089 236° Southwest 430 495 23,300 1,289 Climbing New York Center
Fri 09:32:01 PM 40.1914 -76.1431 240° Southwest 430 495 24,700 1,279 Climbing New York Center
Fri 09:33:03 PM 40.1289 -76.2739 238° Southwest 430 495 25,900 1,160 Climbing New York Center
Fri 09:34:00 PM 40.0686 -76.4047 239° Southwest 430 495 27,000 1,115 Climbing New York Center
Fri 09:35:39 PM 39.9947 -76.6314 247° West 406 467 28,800 1,043 Climbing Washington Center
Fri 09:36:41 PM 39.9517 -76.7661 247° West 413 475 29,800 1,000 Climbing Washington Center
Fri 09:37:39 PM 39.9044 -76.9058 246° West 413 475 30,800 966 Climbing Washington Center
Fri 09:38:39 PM 39.8611 -77.0511 249° West 418 481 31,700 934 Climbing Washington Center
Fri 09:39:41 PM 39.8133 -77.1933 246° West 430 495 32,700 934 Climbing Washington Center
Fri 09:40:41 PM 39.7678 -77.3381 248° West 430 495 33,600 661 Climbing Washington Center
Fri 09:41:39 PM 39.7197 -77.4853 247° West 430 495 34,000 202 Climbing Washington Center
Fri 09:42:40 PM 39.6692 -77.6403 247° West 446 513 34,000  Level Washington Center
Fri 09:43:41 PM 39.6164 -77.8006 247° West 464 534 34,000  Level Washington Center
Fri 09:44:39 PM 39.5656 -77.9578 247° West 477 549 34,000  Level Washington Center
Fri 09:45:39 PM 39.5122 -78.1175 247° West 482 555 34,000  Level Washington Center
Fri 09:46:39 PM 39.4589 -78.2742 246° West 482 555 34,000  Level Washington Center
Fri 09:47:39 PM 39.4050 -78.4361 247° West 488 562 34,000  Level Washington Center
Fri 09:48:39 PM 39.3511 -78.5975 247° West 488 562 34,000  Level Washington Center
Fri 09:49:39 PM 39.2972 -78.7536 246° West 488 562 34,000  Level Washington Center
Fri 09:50:40 PM 39.2428 -78.9094 246° West 488 562 34,000  Level Washington Center
Fri 09:51:40 PM 39.1883 -79.0703 246° West 488 562 34,000  Level Washington Center
Fri 09:52:40 PM 39.1336 -79.2256 246° West 488 562 34,000  Level Washington Center
Fri 09:53:40 PM 39.0919 -79.3653 249° West 483 556 34,000  Level Washington Center
Fri 09:54:39 PM 39.0283 -79.5303 244° Southwest 483 556 34,000  Level Washington Center
Fri 09:55:39 PM 38.9817 -79.6719 247° West 483 556 34,000  Level Washington Center
Fri 09:56:40 PM 38.9283 -79.8319 247° West 483 556 34,000  Level Washington Center
Fri 09:57:39 PM 38.8681 -79.9992 245° Southwest 483 556 34,000  Level Washington Center
Fri 09:58:39 PM 38.8225 -80.1589 250° West 483 556 34,000  Level Washington Center
Fri 09:59:52 PM 38.8128 -80.3344 266° West 459 528 34,000  Level Indianapolis Center
Fri 10:00:53 PM 38.8089 -80.4958 268° West 456 525 34,000  Level Indianapolis Center
Fri 10:01:54 PM 38.7844 -80.6578 259° West 462 532 34,000  Level Indianapolis Center
Fri 10:02:55 PM 38.7625 -80.8206 260° West 463 533 34,000  Level Indianapolis Center
Fri 10:03:56 PM 38.7397 -80.9839 260° West 465 535 34,000 -537 Level Indianapolis Center
Fri 10:04:58 PM 38.7172 -81.1453 260° West 461 531 32,900 -976 Descending Indianapolis Center
Fri 10:05:59 PM 38.6892 -81.3386 260° West 460 529 32,000 -443 Descending Indianapolis Center
Fri 10:07:00 PM 38.6661 -81.4944 259° West 468 539 32,000  Level Indianapolis Center
Fri 10:08:01 PM 38.6439 -81.6614 260° West 474 545 32,000  Level Indianapolis Center
Fri 10:09:02 PM 38.6208 -81.8178 259° West 473 544 32,000 -246 Level Indianapolis Center
Fri 10:10:03 PM 38.5967 -81.9806 259° West 467 537 31,500 -738 Descending Indianapolis Center
Fri 10:11:04 PM 38.5719 -82.1439 259° West 467 537 30,500 -1,131 Descending Indianapolis Center
Fri 10:12:05 PM 38.5425 -82.3422 259° West 471 542 29,200 -1,131 Descending Indianapolis Center
Fri 10:13:06 PM 38.5169 -82.5056 259° West 467 537 28,200 -1,033 Descending Indianapolis Center
Fri 10:14:07 PM 38.4917 -82.6714 259° West 474 545 27,100 -1,033 Descending Indianapolis Center
Fri 10:15:08 PM 38.4653 -82.8375 259° West 478 550 26,100 -984 Descending Indianapolis Center
Fri 10:16:09 PM 38.4392 -83.0031 259° West 478 550 25,100 -1,230 Descending Indianapolis Center
Fri 10:17:10 PM 38.4139 -83.1656 259° West 471 542 23,600 -1,475 Descending Indianapolis Center
Fri 10:18:11 PM 38.3969 -83.3247 262° West 462 532 22,100 -1,820 Descending Indianapolis Center
Fri 10:19:12 PM 38.4389 -83.4672 291° West 436 502 19,900 -2,311 Descending Indianapolis Center
Fri 10:20:13 PM 38.4883 -83.5981 296° West 417 480 17,400 -2,656 Descending Indianapolis Center
Fri 10:21:14 PM 38.5372 -83.7261 296° West 405 466 14,500 -2,951 Descending Indianapolis Center
Fri 10:22:15 PM 38.5844 -83.8481 296° West 389 448 11,400 -2,213 Descending Indianapolis Center
Fri 10:23:16 PM 38.6386 -83.9864 297° West 376 433 10,000 -689 Descending Indianapolis Center
Fri 10:24:17 PM 38.6789 -84.0883 297° West 365 420 10,000  Level Indianapolis Center
Fri 10:25:18 PM 38.7244 -84.2042 297° West 363 418 10,000  Level Indianapolis Center
Fri 10:26:19 PM 38.7689 -84.3161 297° West 357 411 10,000 -836 Level Indianapolis Center
Fri 10:27:20 PM 38.8053 -84.4075 297° West 309 356 8,300 -1,770 Descending Indianapolis Center
Fri 10:28:21 PM 38.8419 -84.4950 298° West 283 326 6,400 -1,918 Descending Indianapolis Center
Fri 10:29:22 PM 38.8811 -84.5897 298° West 274 315 4,400 -1,279 Descending Indianapolis Center
Fri 10:30:23 PM 38.9228 -84.6842 300° West 274 315 3,800 -1,174 Descending Indianapolis Center
Fri 10:31:40 PM 38.9833 -84.6667 13° North 129 148 1,700 -1,175 Descending Cincinnati TRACON
Fri 10:32:46 PM 39.0333 -84.6667 360° North 129 148 1,000 -636 Descending Cincinnati TRACON

Login

Don't have an account? Register now (free) for customized features, flight alerts, and more!